Time;durP1;ratioP1;P1;durP2;ratioP2;P2;SDS_P1;SDS_P2;PMS_P1;PMS_P2;Temp;Humidity;BMP_temperature;BMP_pressure;BME280_temperature;BME280_humidity;BME280_pressure;Samples;Min_cycle;Max_cycle;Signal;HPM_P1;HPM_P2
2021/04/24 00:01:22;;;;;;;8.17;5.43;;;10.40;78.50;;;;;;5054811;28;20233;-52
2021/04/24 00:03:48;;;;;;;8.70;5.30;;;10.40;78.90;;;;;;5051530;28;20206;-51
2021/04/24 00:06:13;;;;;;;5.10;4.30;;;10.20;79.40;;;;;;5054173;28;20432;-52
2021/04/24 00:08:39;;;;;;;6.70;5.03;;;10.10;80.60;;;;;;5046786;28;20517;-50
2021/04/24 00:11:05;;;;;;;8.30;5.10;;;10.10;80.90;;;;;;5048863;28;20290;-51
2021/04/24 00:13:31;;;;;;;6.97;5.00;;;10.10;81.60;;;;;;5054790;28;20179;-53
2021/04/24 00:15:56;;;;;;;8.80;5.57;;;10.10;81.90;;;;;;5051281;28;20503;-53
2021/04/24 00:18:22;;;;;;;6.00;5.40;;;10.10;82.30;;;;;;5054101;28;20608;-50
2021/04/24 00:20:48;;;;;;;10.40;5.27;;;10.00;82.60;;;;;;5053693;28;20273;-54
2021/04/24 00:23:14;;;;;;;6.53;5.17;;;9.90;83.90;;;;;;5053855;28;20280;-52
2021/04/24 00:25:40;;;;;;;6.77;5.33;;;9.80;84.30;;;;;;5054913;28;20170;-51
2021/04/24 00:28:08;;;;;;;6.40;4.77;;;9.80;85.40;;;;;;5054120;28;20416;-52
2021/04/24 00:30:34;;;;;;;6.17;5.03;;;9.80;85.70;;;;;;5050389;28;20210;-54
2021/04/24 00:32:59;;;;;;;6.50;5.30;;;9.70;86.40;;;;;;5052947;28;20399;-51
2021/04/24 00:35:25;;;;;;;8.70;5.53;;;9.60;87.10;;;;;;5053948;28;20207;-48
2021/04/24 00:37:50;;;;;;;8.60;5.63;;;9.60;87.90;;;;;;5045248;28;20569;-49
2021/04/24 00:40:17;;;;;;;7.30;5.20;;;9.60;88.20;;;;;;5052465;28;20252;-50
2021/04/24 00:42:44;;;;;;;7.17;5.17;;;9.50;88.80;;;;;;5054132;28;20266;-48
2021/04/24 00:45:13;;;;;;;9.57;5.57;;;9.50;89.50;;;;;;5052675;28;20419;-50
2021/04/24 00:47:39;;;;;;;9.40;5.53;;;9.50;89.70;;;;;;5053191;28;20947;-52
2021/04/24 00:50:06;;;;;;;9.10;6.00;;;9.40;89.90;;;;;;5054318;28;20494;-51
2021/04/24 00:52:32;;;;;;;8.97;5.90;;;9.50;90.10;;;;;;5047945;28;20178;-50
2021/04/24 00:54:58;;;;;;;6.70;5.13;;;9.40;90.70;;;;;;5051992;28;20832;-54
2021/04/24 00:57:24;;;;;;;9.20;6.30;;;9.40;90.60;;;;;;5047391;28;20414;-51
2021/04/24 00:59:49;;;;;;;9.07;6.60;;;9.40;90.80;;;;;;5053680;28;20206;-53
2021/04/24 01:02:15;;;;;;;7.93;5.93;;;9.30;91.20;;;;;;5052549;28;20801;-52
2021/04/24 01:04:42;;;;;;;9.43;6.27;;;9.30;91.40;;;;;;5054101;28;20203;-48
2021/04/24 01:07:08;;;;;;;6.83;6.13;;;9.30;91.80;;;;;;5053384;28;20409;-52
2021/04/24 01:09:33;;;;;;;8.67;5.37;;;9.30;91.80;;;;;;5053695;28;20466;-51
2021/04/24 01:11:59;;;;;;;10.73;5.97;;;9.30;92.00;;;;;;5053587;28;20970;-51
2021/04/24 01:14:26;;;;;;;9.03;5.63;;;9.20;92.10;;;;;;5054031;28;20187;-51
2021/04/24 01:16:52;;;;;;;10.30;6.40;;;9.10;92.40;;;;;;5052590;28;20422;-50
2021/04/24 01:19:21;;;;;;;11.27;5.43;;;9.10;92.70;;;;;;5046498;28;20586;-50
2021/04/24 01:21:49;;;;;;;7.93;6.50;;;8.90;93.10;;;;;;5050202;28;20433;-53
2021/04/24 01:24:15;;;;;;;10.50;6.43;;;8.90;93.60;;;;;;5052852;28;20788;-51
2021/04/24 01:26:41;;;;;;;9.70;6.60;;;8.90;93.60;;;;;;5053333;28;20418;-53
2021/04/24 01:29:06;;;;;;;9.00;6.43;;;8.90;93.70;;;;;;5052872;28;20421;-50
2021/04/24 01:31:37;;;;;;;10.50;6.50;;;8.80;93.80;;;;;;5061028;22;20298;-58
2021/04/24 01:34:04;;;;;;;9.90;5.40;;;8.80;94.00;;;;;;5035567;28;20214;-59
2021/04/24 01:36:30;;;;;;;12.03;6.67;;;8.80;94.00;;;;;;5027269;28;20406;-58
2021/04/24 01:38:55;;;;;;;9.83;6.50;;;8.70;94.40;;;;;;5034424;28;20484;-59
2021/04/24 01:41:21;;;;;;;10.40;6.43;;;8.70;94.60;;;;;;5035130;28;20242;-59
2021/04/24 01:43:55;;;;;;;10.50;6.50;;;8.60;95.10;;;;;;5034566;28;20167;-59
2021/04/24 01:46:21;;;;;;;10.10;6.43;;;8.60;94.80;;;;;;5032414;28;20230;-58
2021/04/24 01:48:47;;;;;;;8.23;6.00;;;8.50;95.00;;;;;;5033481;28;20465;-58
2021/04/24 01:51:13;;;;;;;9.20;7.20;;;8.50;95.30;;;;;;5033039;28;20431;-59
2021/04/24 01:53:39;;;;;;;10.57;6.83;;;8.50;95.50;;;;;;5033891;28;20862;-58
2021/04/24 01:56:06;;;;;;;9.73;6.73;;;8.40;95.70;;;;;;5032975;28;20811;-55
2021/04/24 01:58:33;;;;;;;8.07;7.00;;;8.40;96.00;;;;;;5034092;28;20463;-58
2021/04/24 02:01:06;;;;;;;8.10;6.33;;;8.30;96.20;;;;;;5033604;28;20457;-59
2021/04/24 02:03:31;;;;;;;11.73;7.70;;;8.40;96.30;;;;;;5016821;28;20418;-59
2021/04/24 02:05:58;;;;;;;7.07;5.10;;;8.30;96.40;;;;;;5033846;28;20418;-59
2021/04/24 02:08:38;;;;;;;8.53;6.40;;;8.40;96.10;;;;;;5032616;28;20533;-58
2021/04/24 02:11:06;;;;;;;7.77;5.83;;;8.40;96.10;;;;;;5033109;28;20436;-54
2021/04/24 02:13:35;;;;;;;9.43;6.43;;;8.40;96.10;;;;;;5034052;28;20415;-55
2021/04/24 02:16:01;;;;;;;8.93;6.10;;;8.40;96.50;;;;;;5034206;28;20409;-57
2021/04/24 02:18:28;;;;;;;8.17;6.53;;;8.30;96.60;;;;;;5026149;28;20789;-57
2021/04/24 02:20:54;;;;;;;12.20;6.83;;;8.30;96.60;;;;;;5033232;28;20629;-59
2021/04/24 02:23:21;;;;;;;7.93;5.87;;;8.30;96.70;;;;;;5031669;28;20516;-59
2021/04/24 02:25:47;;;;;;;9.33;7.50;;;8.30;96.90;;;;;;5033530;28;20411;-58
2021/04/24 02:28:15;;;;;;;7.93;5.97;;;8.30;96.90;;;;;;5034913;28;20496;-58
2021/04/24 02:30:41;;;;;;;10.03;7.00;;;8.20;97.10;;;;;;5026540;28;20402;-58
2021/04/24 02:33:08;;;;;;;11.17;5.80;;;8.20;97.40;;;;;;5033267;28;20444;-58
2021/04/24 02:35:42;;;;;;;10.80;6.13;;;8.10;97.40;;;;;;5033136;28;20410;-58
2021/04/24 02:38:08;;;;;;;8.00;6.30;;;8.20;97.30;;;;;;5032222;28;20402;-58
2021/04/24 02:40:33;;;;;;;7.43;5.70;;;8.20;97.30;;;;;;5034460;28;21036;-59
2021/04/24 02:42:59;;;;;;;8.00;6.03;;;8.20;97.40;;;;;;5033971;28;20190;-56
2021/04/24 02:45:25;;;;;;;7.80;6.60;;;8.10;97.60;;;;;;5015900;28;20263;-59
2021/04/24 02:47:51;;;;;;;12.17;7.57;;;8.10;97.60;;;;;;5034206;28;20230;-58
2021/04/24 02:50:19;;;;;;;11.10;6.70;;;8.10;97.80;;;;;;5035079;28;20406;-59
2021/04/24 02:52:45;;;;;;;9.57;5.77;;;8.00;97.80;;;;;;5016404;28;20437;-59
2021/04/24 02:55:13;;;;;;;8.37;5.30;;;8.00;98.10;;;;;;5034601;28;20412;-58
2021/04/24 02:57:38;;;;;;;7.77;6.10;;;8.00;98.20;;;;;;5027507;28;20784;-58
2021/04/24 03:00:07;;;;;;;7.40;6.30;;;8.00;98.20;;;;;;5033341;28;20468;-58
2021/04/24 03:02:32;;;;;;;13.27;7.10;;;8.00;98.30;;;;;;5033023;28;20195;-58
2021/04/24 03:04:58;;;;;;;7.90;6.20;;;8.00;98.40;;;;;;5032744;28;20569;-59
2021/04/24 03:07:23;;;;;;;12.57;6.53;;;7.90;98.50;;;;;;5032688;28;20250;-59
2021/04/24 03:09:49;;;;;;;9.77;6.70;;;7.90;98.70;;;;;;5033091;28;20179;-58
2021/04/24 03:12:15;;;;;;;9.80;6.43;;;7.90;99.00;;;;;;5031964;28;20231;-58
2021/04/24 03:14:40;;;;;;;9.00;7.20;;;7.90;99.00;;;;;;5033101;28;20229;-57
2021/04/24 03:17:06;;;;;;;8.90;6.27;;;7.80;99.20;;;;;;5032579;28;20258;-55
2021/04/24 03:19:32;;;;;;;9.83;6.90;;;7.70;99.50;;;;;;5031851;28;20196;-55
2021/04/24 03:21:57;;;;;;;9.83;6.60;;;7.70;99.50;;;;;;5030640;28;20191;-58
2021/04/24 03:24:23;;;;;;;8.20;5.90;;;7.70;99.50;;;;;;5032016;28;20186;-55
2021/04/24 03:26:48;;;;;;;8.80;6.53;;;7.60;99.50;;;;;;5032584;28;20187;-55
2021/04/24 03:29:14;;;;;;;8.80;6.60;;;7.60;99.60;;;;;;5034155;28;20171;-59
2021/04/24 03:31:39;;;;;;;8.17;5.73;;;7.60;99.80;;;;;;5033618;28;20293;-58
2021/04/24 03:34:05;;;;;;;10.70;7.30;;;7.60;99.90;;;;;;5034005;28;20171;-57
2021/04/24 03:36:31;;;;;;;9.27;7.33;;;7.50;99.90;;;;;;5032715;28;20539;-59
2021/04/24 03:38:57;;;;;;;9.90;7.30;;;7.50;99.90;;;;;;5027113;28;20229;-58
2021/04/24 03:41:22;;;;;;;12.20;7.30;;;7.50;99.90;;;;;;5036503;28;20430;-59
2021/04/24 03:43:48;;;;;;;8.37;6.60;;;7.50;99.90;;;;;;5037209;28;20242;-58
2021/04/24 03:46:14;;;;;;;9.80;7.23;;;7.60;99.90;;;;;;5036367;28;20214;-59
2021/04/24 03:48:39;;;;;;;10.70;6.20;;;7.50;99.90;;;;;;5036073;28;20225;-55
2021/04/24 03:51:05;;;;;;;10.93;7.47;;;7.50;99.90;;;;;;5036542;28;20253;-57
2021/04/24 03:53:31;;;;;;;9.17;5.80;;;7.50;99.90;;;;;;5035869;28;20181;-56
2021/04/24 03:55:57;;;;;;;10.20;6.77;;;7.50;99.90;;;;;;5034771;28;20163;-55
2021/04/24 03:58:22;;;;;;;10.00;6.33;;;7.50;99.90;;;;;;5035396;28;20172;-57
2021/04/24 04:00:48;;;;;;;10.57;7.47;;;7.40;99.90;;;;;;5035089;28;20211;-57
2021/04/24 04:03:14;;;;;;;6.80;6.10;;;7.40;99.90;;;;;;5033566;28;20255;-56
2021/04/24 04:05:42;;;;;;;11.80;6.77;;;7.40;99.90;;;;;;5034602;28;20885;-55
2021/04/24 04:08:09;;;;;;;7.80;6.57;;;7.40;99.90;;;;;;5035212;28;20170;-55
2021/04/24 04:10:36;;;;;;;11.93;7.57;;;7.40;99.90;;;;;;5035055;28;20455;-57
2021/04/24 04:13:03;;;;;;;12.13;7.03;;;7.40;99.90;;;;;;5034719;28;20418;-56
2021/04/24 04:15:30;;;;;;;9.83;7.07;;;7.30;99.90;;;;;;5036050;28;20406;-55
2021/04/24 04:18:03;;;;;;;9.97;7.07;;;7.30;99.90;;;;;;5028120;28;20749;-58
2021/04/24 04:20:29;;;;;;;9.07;7.10;;;7.20;99.90;;;;;;5035270;28;20965;-56
2021/04/24 04:22:55;;;;;;;10.97;7.33;;;7.30;99.90;;;;;;5035303;28;20471;-57
2021/04/24 04:25:21;;;;;;;8.80;7.40;;;7.30;99.90;;;;;;5034258;28;20410;-55
2021/04/24 04:27:47;;;;;;;14.27;7.00;;;7.30;99.90;;;;;;5034592;28;20460;-57
2021/04/24 04:30:14;;;;;;;9.77;7.07;;;7.20;99.90;;;;;;5035212;28;20191;-56
2021/04/24 04:32:40;;;;;;;12.13;8.50;;;7.10;99.90;;;;;;5034021;28;20211;-56
2021/04/24 04:35:07;;;;;;;9.80;7.23;;;7.10;99.90;;;;;;5033962;28;20942;-55
2021/04/24 04:37:33;;;;;;;11.17;8.40;;;7.20;99.90;;;;;;5033914;28;20410;-55
2021/04/24 04:39:59;;;;;;;10.40;6.33;;;7.20;99.90;;;;;;5034450;28;20981;-58
2021/04/24 04:42:25;;;;;;;9.93;7.73;;;7.30;99.90;;;;;;5033991;28;20438;-56
2021/04/24 04:44:52;;;;;;;9.27;6.80;;;7.40;99.90;;;;;;5034377;28;20309;-55
2021/04/24 04:47:17;;;;;;;10.30;8.30;;;7.30;99.90;;;;;;5032219;28;20872;-56
2021/04/24 04:49:43;;;;;;;10.40;7.80;;;7.20;99.90;;;;;;5034225;28;20422;-54
2021/04/24 04:52:08;;;;;;;13.40;8.80;;;7.20;99.90;;;;;;5034034;28;20207;-56
2021/04/24 04:54:34;;;;;;;8.43;7.47;;;7.30;99.90;;;;;;5034528;28;20175;-54
2021/04/24 04:57:00;;;;;;;9.43;7.27;;;7.40;99.90;;;;;;5028852;28;20480;-54
2021/04/24 04:59:28;;;;;;;9.37;7.30;;;7.40;99.90;;;;;;5033712;28;20231;-55
2021/04/24 05:01:55;;;;;;;10.73;7.90;;;7.40;99.90;;;;;;5034021;28;20267;-55
2021/04/24 05:04:20;;;;;;;9.53;7.30;;;7.40;99.90;;;;;;5016120;28;20410;-56
2021/04/24 05:06:48;;;;;;;8.80;6.33;;;7.40;99.90;;;;;;5033529;28;20464;-56
2021/04/24 05:09:15;;;;;;;12.03;7.43;;;7.40;99.90;;;;;;5033554;28;20624;-57
2021/04/24 05:11:41;;;;;;;17.80;9.07;;;7.40;99.90;;;;;;5033904;28;20535;-55
2021/04/24 05:14:07;;;;;;;14.63;9.93;;;7.50;99.90;;;;;;5033889;28;20417;-53
2021/04/24 05:16:33;;;;;;;14.83;9.60;;;7.50;99.90;;;;;;5032120;28;20426;-53
2021/04/24 05:18:58;;;;;;;13.10;9.93;;;7.50;99.90;;;;;;5033440;28;20183;-55
2021/04/24 05:21:24;;;;;;;13.30;9.67;;;7.50;99.90;;;;;;5033122;28;20295;-56
2021/04/24 05:23:49;;;;;;;15.43;10.60;;;7.50;99.90;;;;;;5034184;28;20222;-56
2021/04/24 05:26:15;;;;;;;13.73;10.43;;;7.50;99.90;;;;;;5034134;28;20656;-53
2021/04/24 05:28:40;;;;;;;11.03;8.37;;;7.60;99.90;;;;;;5029756;28;20182;-56
2021/04/24 05:31:07;;;;;;;13.53;8.53;;;7.70;99.90;;;;;;5032875;28;20219;-53
2021/04/24 05:33:33;;;;;;;13.40;8.13;;;7.80;99.90;;;;;;5032622;28;20190;-54
2021/04/24 05:36:01;;;;;;;11.07;8.13;;;7.90;99.90;;;;;;5033206;28;20926;-56
2021/04/24 05:38:27;;;;;;;10.93;8.17;;;7.90;99.90;;;;;;5032091;28;20441;-56
2021/04/24 05:40:53;;;;;;;11.60;7.63;;;7.80;99.90;;;;;;5015433;28;20465;-54
2021/04/24 05:43:18;;;;;;;10.97;8.93;;;8.00;99.90;;;;;;5033411;28;20414;-56
2021/04/24 05:45:44;;;;;;;7.80;7.00;;;8.10;99.90;;;;;;5032386;28;20276;-56
2021/04/24 05:48:10;;;;;;;9.07;7.30;;;8.20;99.90;;;;;;5032964;28;20250;-56
2021/04/24 05:50:35;;;;;;;11.30;8.33;;;8.30;99.90;;;;;;5033325;28;20183;-57
2021/04/24 05:53:01;;;;;;;10.10;7.30;;;8.30;99.90;;;;;;5034457;28;20175;-57
2021/04/24 05:55:26;;;;;;;9.30;6.90;;;8.40;99.90;;;;;;5034507;28;20310;-58
2021/04/24 05:57:52;;;;;;;9.30;8.00;;;8.50;99.90;;;;;;5026651;28;20179;-57
2021/04/24 06:00:20;;;;;;;11.27;7.40;;;8.60;99.90;;;;;;5032990;28;20230;-57
2021/04/24 06:02:47;;;;;;;11.80;7.10;;;8.70;99.90;;;;;;5032020;28;20209;-57
2021/04/24 06:05:12;;;;;;;9.83;6.30;;;8.90;99.90;;;;;;5033013;28;20418;-57
2021/04/24 06:07:39;;;;;;;9.00;7.60;;;9.00;99.90;;;;;;5031807;28;20418;-54
2021/04/24 06:10:06;;;;;;;13.03;7.30;;;9.20;99.90;;;;;;5032478;28;20513;-54
2021/04/24 06:12:32;;;;;;;8.23;6.73;;;9.60;99.90;;;;;;5032750;28;20810;-57
2021/04/24 06:14:57;;;;;;;11.70;7.67;;;9.90;99.30;;;;;;5032836;28;20425;-56
2021/04/24 06:17:24;;;;;;;10.77;8.50;;;10.00;98.50;;;;;;5032352;28;20235;-54
2021/04/24 06:19:49;;;;;;;9.70;8.20;;;10.10;98.40;;;;;;5032031;28;20693;-57
2021/04/24 06:22:15;;;;;;;8.97;8.07;;;10.10;98.50;;;;;;5031561;28;20439;-56
2021/04/24 06:24:41;;;;;;;9.87;7.57;;;10.20;98.50;;;;;;5014406;28;20175;-57
2021/04/24 06:27:07;;;;;;;10.47;8.27;;;10.20;98.40;;;;;;5032162;28;20647;-56
2021/04/24 06:29:32;;;;;;;10.23;8.03;;;10.30;98.20;;;;;;5033339;28;20176;-57
2021/04/24 06:31:58;;;;;;;9.57;7.90;;;10.40;98.00;;;;;;5033618;28;20698;-58
2021/04/24 06:34:24;;;;;;;12.13;9.17;;;10.50;98.10;;;;;;5034058;28;20626;-57
2021/04/24 06:36:50;;;;;;;9.90;8.50;;;10.60;97.80;;;;;;5027960;28;20611;-56
2021/04/24 06:39:15;;;;;;;11.70;8.50;;;10.70;97.50;;;;;;5031194;28;20237;-53
2021/04/24 06:41:41;;;;;;;9.87;8.43;;;10.80;97.10;;;;;;5032106;28;20448;-57
2021/04/24 06:44:07;;;;;;;12.00;9.27;;;10.90;97.10;;;;;;5032645;28;20179;-57
2021/04/24 06:46:32;;;;;;;13.50;9.10;;;11.00;96.50;;;;;;5032033;28;20179;-54
2021/04/24 06:48:58;;;;;;;14.70;8.40;;;11.10;96.20;;;;;;5032037;28;20588;-58
2021/04/24 06:51:24;;;;;;;10.20;8.70;;;11.00;95.20;;;;;;5032881;28;20310;-54
2021/04/24 06:53:53;;;;;;;13.20;10.33;;;10.90;95.00;;;;;;5032419;28;20228;-57
2021/04/24 06:56:20;;;;;;;12.03;8.83;;;10.90;95.10;;;;;;5032350;28;20637;-56
2021/04/24 06:58:46;;;;;;;13.03;10.30;;;10.70;95.40;;;;;;5031778;28;20425;-56
2021/04/24 07:01:11;;;;;;;14.43;9.67;;;10.70;95.50;;;;;;5031714;28;20462;-56
2021/04/24 07:03:37;;;;;;;12.70;10.67;;;10.80;96.00;;;;;;5032137;28;20512;-56
2021/04/24 07:06:04;;;;;;;11.47;9.83;;;11.00;96.00;;;;;;5031758;28;20262;-55
2021/04/24 07:08:30;;;;;;;13.20;10.10;;;11.30;96.00;;;;;;5032360;28;20206;-51
2021/04/24 07:10:56;;;;;;;11.80;9.57;;;11.40;95.40;;;;;;5033058;28;20433;-53
2021/04/24 07:13:21;;;;;;;11.83;10.10;;;11.30;94.90;;;;;;5032956;28;20180;-56
2021/04/24 07:15:47;;;;;;;10.77;9.07;;;11.30;95.10;;;;;;5036992;28;20410;-55
2021/04/24 07:18:13;;;;;;;13.83;9.70;;;11.30;94.90;;;;;;5029454;28;20222;-56
2021/04/24 07:20:38;;;;;;;10.27;9.27;;;11.30;95.00;;;;;;5035694;28;20198;-56
2021/04/24 07:23:04;;;;;;;15.20;10.73;;;11.30;94.90;;;;;;5033852;28;20266;-57
2021/04/24 07:25:30;;;;;;;14.00;10.33;;;11.50;94.80;;;;;;5035899;28;20175;-56
2021/04/24 07:27:56;;;;;;;11.23;10.00;;;11.60;95.00;;;;;;5035532;28;20221;-56
2021/04/24 07:30:22;;;;;;;14.90;10.67;;;11.70;94.00;;;;;;5036458;28;20244;-56
2021/04/24 07:32:48;;;;;;;15.57;11.00;;;11.70;93.60;;;;;;5037651;23;20484;-51
2021/04/24 07:35:14;;;;;;;16.27;10.80;;;11.80;93.70;;;;;;5016667;28;20411;-51
2021/04/24 07:37:40;;;;;;;14.30;10.23;;;11.90;93.50;;;;;;5014173;28;20182;-50
2021/04/24 07:40:07;;;;;;;11.17;9.90;;;11.90;93.30;;;;;;5015856;28;20530;-49
2021/04/24 07:42:32;;;;;;;15.07;10.03;;;11.90;93.40;;;;;;5016068;28;20196;-51
2021/04/24 07:44:58;;;;;;;13.67;10.30;;;12.00;93.40;;;;;;5015488;28;20413;-52
2021/04/24 07:47:23;;;;;;;16.77;10.87;;;12.20;93.20;;;;;;5015410;28;20176;-49
2021/04/24 07:49:49;;;;;;;15.60;10.03;;;12.40;92.90;;;;;;5015872;28;20199;-49
2021/04/24 07:52:15;;;;;;;12.93;9.37;;;12.60;92.50;;;;;;5016699;28;20619;-53
2021/04/24 07:54:44;;;;;;;13.20;10.00;;;12.70;92.20;;;;;;5016463;28;20197;-53
2021/04/24 07:57:11;;;;;;;16.60;9.93;;;12.80;91.90;;;;;;5008813;28;20863;-50
2021/04/24 07:59:37;;;;;;;13.20;10.43;;;12.80;92.30;;;;;;5013911;28;20447;-52
2021/04/24 08:02:03;;;;;;;11.30;10.10;;;12.90;91.70;;;;;;5015433;28;20445;-53
2021/04/24 08:04:28;;;;;;;11.87;9.50;;;13.10;91.40;;;;;;5014644;28;20179;-50
2021/04/24 08:06:54;;;;;;;13.80;9.50;;;13.30;90.70;;;;;;5014207;28;20421;-49
2021/04/24 08:09:20;;;;;;;11.27;9.03;;;13.50;90.30;;;;;;4995753;28;20184;-53
2021/04/24 08:11:45;;;;;;;17.33;9.93;;;13.40;90.00;;;;;;5014067;28;20245;-52
2021/04/24 08:14:11;;;;;;;11.30;8.17;;;13.40;90.10;;;;;;5014383;28;20627;-54
2021/04/24 08:16:37;;;;;;;11.90;9.00;;;13.60;89.10;;;;;;5014491;28;20176;-50
2021/04/24 08:19:03;;;;;;;10.77;9.67;;;13.70;88.50;;;;;;5014482;28;20640;-51
2021/04/24 08:21:30;;;;;;;12.13;9.20;;;13.70;88.00;;;;;;5014998;28;20196;-51
2021/04/24 08:23:59;;;;;;;10.70;8.67;;;13.80;87.90;;;;;;5015052;28;20884;-53
2021/04/24 08:26:27;;;;;;;10.37;8.67;;;14.00;87.30;;;;;;5015060;28;20503;-50
2021/04/24 08:28:53;;;;;;;9.27;8.03;;;14.30;87.10;;;;;;5015589;28;20412;-52
2021/04/24 08:31:18;;;;;;;13.53;9.43;;;14.30;84.20;;;;;;5015199;28;20998;-52
2021/04/24 08:33:44;;;;;;;14.07;8.90;;;14.50;83.90;;;;;;5015542;28;20158;-54
2021/04/24 08:36:10;;;;;;;12.97;8.60;;;14.60;82.40;;;;;;5015445;28;20224;-53
2021/04/24 08:38:35;;;;;;;15.27;9.20;;;14.60;82.10;;;;;;5007561;28;20639;-49
2021/04/24 08:41:03;;;;;;;12.80;9.20;;;14.50;81.60;;;;;;5009714;28;20623;-52
2021/04/24 08:43:29;;;;;;;10.73;8.70;;;14.70;82.30;;;;;;5013196;28;20181;-51
2021/04/24 08:46:00;;;;;;;9.60;8.60;;;14.80;80.50;;;;;;5014187;28;20407;-48
2021/04/24 08:48:25;;;;;;;11.43;8.93;;;14.90;81.10;;;;;;5013441;28;20924;-53
2021/04/24 08:50:51;;;;;;;10.90;8.50;;;15.20;79.40;;;;;;5013500;28;20416;-52
2021/04/24 08:53:21;;;;;;;13.63;8.83;;;15.10;79.20;;;;;;5014256;28;20205;-49
2021/04/24 08:55:48;;;;;;;11.13;9.07;;;15.10;78.60;;;;;;5013467;28;20588;-49
2021/04/24 08:58:15;;;;;;;11.27;8.50;;;15.30;77.10;;;;;;5014464;28;20931;-50
2021/04/24 09:00:43;;;;;;;9.53;8.30;;;15.30;76.30;;;;;;5013828;28;20923;-50
2021/04/24 09:03:12;;;;;;;9.80;8.77;;;15.40;76.00;;;;;;5013198;28;20546;-50
2021/04/24 09:05:39;;;;;;;11.53;10.10;;;15.50;76.00;;;;;;5013873;28;20413;-51
2021/04/24 09:08:06;;;;;;;10.27;9.00;;;15.60;77.30;;;;;;5013120;28;20413;-53
2021/04/24 09:10:54;;;;;;;13.50;9.63;;;15.60;76.10;;;;;;5013581;28;20424;-51
2021/04/24 09:13:24;;;;;;;10.80;9.70;;;15.50;75.30;;;;;;5013983;28;20440;-52
2021/04/24 09:15:51;;;;;;;12.87;9.90;;;15.60;75.00;;;;;;5017238;28;20426;-49
2021/04/24 09:18:18;;;;;;;11.77;9.83;;;15.60;74.50;;;;;;5016265;28;20828;-54
2021/04/24 09:21:03;;;;;;;13.87;10.20;;;15.60;73.30;;;;;;5013094;28;20883;-50
2021/04/24 09:23:34;;;;;;;14.20;9.97;;;15.60;73.10;;;;;;5014506;28;20900;-52
2021/04/24 09:26:01;;;;;;;11.97;10.00;;;15.80;72.00;;;;;;5013349;28;20420;-54
2021/04/24 09:28:30;;;;;;;12.53;9.63;;;15.70;72.70;;;;;;5006739;28;20757;-51
2021/04/24 09:30:57;;;;;;;10.67;8.60;;;15.90;72.10;;;;;;5012911;28;20981;-50
2021/04/24 09:33:32;;;;;;;9.83;8.80;;;16.00;70.00;;;;;;5012889;28;20511;-51
2021/04/24 09:35:58;;;;;;;10.90;9.00;;;16.10;69.70;;;;;;5013801;28;20421;-51
2021/04/24 09:38:31;;;;;;;12.20;9.53;;;16.00;67.30;;;;;;5011820;28;20432;-53
2021/04/24 09:41:16;;;;;;;12.57;8.90;;;16.10;66.50;;;;;;5013083;28;20456;-52
2021/04/24 09:43:46;;;;;;;13.07;9.33;;;16.20;63.80;;;;;;5012479;28;20475;-54
2021/04/24 09:46:14;;;;;;;11.67;9.50;;;16.30;62.20;;;;;;5013368;28;20522;-53
2021/04/24 09:48:39;;;;;;;13.07;9.23;;;16.50;62.80;;;;;;5012918;28;20899;-52
2021/04/24 09:51:18;;;;;;;11.83;9.43;;;16.50;62.00;;;;;;5012733;28;20421;-52
2021/04/24 09:53:57;;;;;;;10.27;9.00;;;16.50;63.10;;;;;;5013073;28;20192;-53
2021/04/24 09:56:25;;;;;;;12.30;9.53;;;16.80;62.80;;;;;;4994802;28;20421;-52
2021/04/24 09:58:51;;;;;;;11.30;8.67;;;17.00;59.50;;;;;;5013070;28;20445;-48
2021/04/24 10:01:26;;;;;;;15.40;9.40;;;17.00;60.00;;;;;;5012628;28;20566;-50
2021/04/24 10:03:53;;;;;;;11.67;9.13;;;17.00;59.10;;;;;;5012783;28;20420;-51
2021/04/24 10:06:25;;;;;;;12.00;9.57;;;17.10;58.50;;;;;;5012532;28;20786;-52
2021/04/24 10:09:13;;;;;;;10.50;9.43;;;17.10;58.80;;;;;;5012480;28;20994;-52
2021/04/24 10:11:40;;;;;;;10.27;9.17;;;17.40;58.90;;;;;;5002525;28;20437;-51
2021/04/24 10:14:06;;;;;;;13.53;8.50;;;17.20;57.50;;;;;;5012333;28;20422;-53
2021/04/24 10:16:37;;;;;;;12.40;10.23;;;17.20;58.00;;;;;;5012155;28;20934;-53
2021/04/24 10:19:05;;;;;;;12.43;9.03;;;17.40;57.40;;;;;;4994199;28;20422;-50
2021/04/24 10:21:31;;;;;;;11.33;9.50;;;17.50;57.00;;;;;;5012202;28;20833;-52
2021/04/24 10:23:58;;;;;;;12.70;8.27;;;17.70;56.30;;;;;;5012529;28;20974;-54
2021/04/24 10:26:25;;;;;;;13.23;9.23;;;17.80;55.10;;;;;;5012090;28;20803;-52
2021/04/24 10:28:56;;;;;;;13.57;9.40;;;17.90;55.10;;;;;;4994997;28;20795;-50
2021/04/24 10:31:22;;;;;;;11.77;8.87;;;18.00;55.20;;;;;;5005878;28;20813;-52
2021/04/24 10:33:49;;;;;;;11.10;9.10;;;18.10;55.30;;;;;;5012207;28;20414;-51
2021/04/24 10:36:16;;;;;;;13.17;9.37;;;18.20;53.40;;;;;;5013126;28;20549;-54
2021/04/24 10:38:47;;;;;;;14.10;8.90;;;18.20;54.10;;;;;;5010840;28;20407;-52
2021/04/24 10:41:15;;;;;;;13.37;10.20;;;18.20;53.90;;;;;;5012272;28;20500;-49
2021/04/24 10:43:55;;;;;;;17.00;9.37;;;18.10;54.20;;;;;;5012097;28;20477;-52
2021/04/24 10:46:30;;;;;;;14.80;9.60;;;18.40;54.20;;;;;;5012451;28;20410;-50
2021/04/24 10:49:18;;;;;;;11.17;10.00;;;18.60;53.70;;;;;;5012055;28;20699;-52
2021/04/24 10:51:51;;;;;;;11.80;9.10;;;19.10;52.80;;;;;;5012687;28;20473;-54
2021/04/24 10:54:17;;;;;;;13.23;10.23;;;20.10;54.70;;;;;;5012631;28;20532;-49
2021/04/24 10:56:42;;;;;;;11.70;9.17;;;21.00;50.10;;;;;;5012105;28;20772;-51
2021/04/24 10:59:18;;;;;;;13.27;9.30;;;22.10;48.20;;;;;;5012794;28;20187;-52
2021/04/24 11:02:10;;;;;;;12.30;10.70;;;23.40;46.20;;;;;;5010357;28;20302;-52
2021/04/24 11:04:50;;;;;;;11.10;9.90;;;24.20;42.70;;;;;;5008509;28;20408;-50
2021/04/24 11:07:27;;;;;;;12.93;9.77;;;24.00;42.70;;;;;;5011919;28;20780;-50
2021/04/24 11:10:14;;;;;;;11.50;9.83;;;22.90;42.30;;;;;;5013521;28;20415;-53
2021/04/24 11:12:45;;;;;;;12.00;10.20;;;22.80;42.20;;;;;;5011688;28;20431;-51
2021/04/24 11:15:14;;;;;;;9.80;8.83;;;23.30;41.50;;;;;;5012343;28;20828;-53
2021/04/24 11:17:40;;;;;;;11.10;8.63;;;24.00;40.30;;;;;;5012001;28;20415;-55
2021/04/24 11:20:11;;;;;;;10.13;9.10;;;24.10;40.20;;;;;;5006742;28;20458;-50
2021/04/24 11:22:40;;;;;;;13.50;9.17;;;25.60;39.10;;;;;;4994817;28;20803;-52
2021/04/24 11:25:19;;;;;;;10.70;8.90;;;25.60;37.00;;;;;;5011847;28;20427;-54
2021/04/24 11:28:04;;;;;;;11.90;9.97;;;26.30;37.20;;;;;;5009217;28;20439;-50
2021/04/24 11:30:58;;;;;;;11.13;10.03;;;26.10;36.90;;;;;;5011144;28;20489;-54
2021/04/24 11:33:45;;;;;;;11.67;9.00;;;25.10;38.20;;;;;;5010366;28;20439;-50
2021/04/24 11:38:57;;;;;;;10.93;9.83;;;25.20;37.30;;;;;;5011599;28;20415;-52
2021/04/24 11:41:40;;;;;;;11.67;9.83;;;25.40;36.70;;;;;;5012611;28;20430;-50
2021/04/24 11:44:17;;;;;;;11.90;9.87;;;25.60;36.30;;;;;;5012820;28;20398;-53
2021/04/24 11:46:48;;;;;;;13.00;9.20;;;25.50;35.70;;;;;;5006290;28;20421;-53
2021/04/24 11:49:18;;;;;;;11.47;9.10;;;25.90;35.20;;;;;;5010377;28;20773;-53
2021/04/24 11:51:59;;;;;;;12.60;10.00;;;26.00;34.10;;;;;;5011686;28;20821;-52
2021/04/24 11:54:44;;;;;;;14.20;10.33;;;26.50;33.70;;;;;;5007975;28;20407;-54
2021/04/24 11:57:17;;;;;;;9.33;8.53;;;26.10;33.80;;;;;;5011142;28;20939;-53
2021/04/24 11:59:44;;;;;;;14.00;10.13;;;26.30;34.00;;;;;;5008738;28;20447;-53
2021/04/24 12:02:14;;;;;;;10.47;8.70;;;26.70;33.00;;;;;;5015197;28;20783;-53
2021/04/24 12:04:39;;;;;;;10.93;9.30;;;26.00;34.50;;;;;;5014775;28;20411;-49
2021/04/24 12:07:11;;;;;;;9.77;8.27;;;27.40;33.20;;;;;;5014342;28;20441;-53
2021/04/24 12:10:00;;;;;;;9.40;8.20;;;28.10;32.40;;;;;;5015289;28;20586;-51
2021/04/24 12:12:34;;;;;;;10.30;9.27;;;28.00;31.70;;;;;;4993599;28;20427;-52
2021/04/24 12:15:04;;;;;;;9.87;8.90;;;27.70;32.50;;;;;;5014926;28;20435;-52
2021/04/24 12:17:30;;;;;;;12.63;9.03;;;28.50;31.20;;;;;;5014603;28;20411;-52
2021/04/24 12:19:55;;;;;;;10.33;9.27;;;28.70;31.10;;;;;;5014230;28;20824;-53
2021/04/24 12:22:21;;;;;;;10.77;9.40;;;27.60;30.90;;;;;;5014294;28;20192;-51
2021/04/24 12:25:03;;;;;;;10.57;8.47;;;26.30;31.80;;;;;;5014879;28;20683;-55
2021/04/24 12:27:42;;;;;;;10.67;9.60;;;27.30;32.00;;;;;;5013700;28;20498;-52
2021/04/24 12:30:21;;;;;;;10.90;8.43;;;27.50;30.60;;;;;;5005586;28;20501;-52
2021/04/24 12:33:08;;;;;;;10.47;9.13;;;27.30;30.70;;;;;;5014368;28;20458;-55
2021/04/24 12:35:39;;;;;;;10.80;9.50;;;28.60;30.20;;;;;;5015065;28;20440;-54
2021/04/24 12:38:06;;;;;;;11.57;8.87;;;27.90;29.70;;;;;;5013639;28;20435;-52
2021/04/24 12:40:40;;;;;;;10.00;9.00;;;28.60;30.40;;;;;;4996379;28;20516;-50
2021/04/24 12:43:12;;;;;;;13.10;9.97;;;28.40;29.30;;;;;;5010405;28;20971;-53
2021/04/24 12:45:42;;;;;;;9.80;8.80;;;27.80;29.70;;;;;;5014166;28;20495;-55
2021/04/24 12:48:22;;;;;;;9.80;8.67;;;28.60;30.30;;;;;;5014506;28;20744;-52
2021/04/24 12:50:50;;;;;;;9.83;8.67;;;29.50;29.10;;;;;;5012654;28;20411;-53